createdAt,value
2023-04-15T00:01:02.659Z,100276.75
2023-04-15T00:03:35.089Z,100276.84
2023-04-15T00:06:08.583Z,100260.88
2023-04-15T00:08:40.499Z,100261.50
2023-04-15T00:11:12.524Z,100259.13
2023-04-15T00:13:44.265Z,100253.63
2023-04-15T00:16:17.487Z,100253.63
2023-04-15T00:18:49.407Z,100242.13
2023-04-15T00:21:22.390Z,100246.34
2023-04-15T00:23:54.231Z,100243.91
2023-04-15T00:26:26.164Z,100239.94
2023-04-15T00:28:58.417Z,100235.22
2023-04-15T00:31:30.986Z,100238.91
2023-04-15T00:34:03.630Z,100245.34
2023-04-15T00:36:37.617Z,100245.34
2023-04-15T00:39:09.518Z,100247.34
2023-04-15T00:41:41.097Z,100231.50
2023-04-15T00:44:12.751Z,100233.09
2023-04-15T00:46:45.615Z,100229.63
2023-04-15T00:49:18.338Z,100234.94
2023-04-15T00:51:51.354Z,100233.03
2023-04-15T00:54:23.296Z,100240.41
2023-04-15T00:56:55.246Z,100242.94
2023-04-15T00:59:27.283Z,100240.94
2023-04-15T01:01:59.189Z,100233.09
2023-04-15T01:04:32.044Z,100232.59
2023-04-15T01:07:05.899Z,100233.41
2023-04-15T01:09:36.671Z,100232.88
2023-04-15T01:12:11.299Z,100230.06
2023-04-15T01:14:43.172Z,100224.06
2023-04-15T01:17:14.818Z,100227.00
2023-04-15T01:19:46.671Z,100225.34
2023-04-15T01:22:21.032Z,100221.00
2023-04-15T01:25:04.693Z,100219.50
2023-04-15T01:27:39.963Z,100220.78
2023-04-15T01:30:14.591Z,100222.31
2023-04-15T01:32:46.557Z,100218.78
2023-04-15T01:35:18.468Z,100229.97
2023-04-15T01:37:50.375Z,100223.69
2023-04-15T01:40:22.769Z,100221.69
2023-04-15T01:42:55.969Z,100220.94
2023-04-15T01:45:27.582Z,100216.31
2023-04-15T01:47:59.489Z,100222.47
2023-04-15T01:50:31.467Z,100211.97
2023-04-15T01:53:03.632Z,100210.59
2023-04-15T01:55:35.545Z,100211.41
2023-04-15T01:58:08.542Z,100203.66
2023-04-15T02:00:40.536Z,100203.81
2023-04-15T02:03:13.236Z,100203.50
2023-04-15T02:05:46.830Z,100197.34
2023-04-15T02:08:18.643Z,100201.84
2023-04-15T02:10:50.803Z,100199.41
2023-04-15T02:13:23.719Z,100191.88
2023-04-15T02:15:56.360Z,100187.22
2023-04-15T02:18:28.241Z,100190.75
2023-04-15T02:20:59.943Z,100198.34
2023-04-15T02:23:31.713Z,100190.88
2023-04-15T02:26:03.514Z,100189.66
2023-04-15T02:28:36.772Z,100183.19
2023-04-15T02:31:10.873Z,100184.97
2023-04-15T02:33:42.729Z,100195.13
2023-04-15T02:36:14.616Z,100193.47
2023-04-15T02:38:46.418Z,100184.34
2023-04-15T02:41:18.696Z,100188.53
2023-04-15T02:43:52.412Z,100193.19
2023-04-15T02:46:24.327Z,100194.56
2023-04-15T02:48:56.056Z,100198.19
2023-04-15T02:51:31.465Z,100200.19
2023-04-15T02:54:03.414Z,100200.75
2023-04-15T02:56:35.436Z,100201.28
2023-04-15T02:59:09.106Z,100209.44
2023-04-15T03:01:41.177Z,100207.91
2023-04-15T03:04:13.693Z,100197.25
2023-04-15T03:06:45.356Z,100198.81
2023-04-15T03:09:17.160Z,100202.13
2023-04-15T03:11:49.207Z,100201.47
2023-04-15T03:14:22.981Z,100200.09
2023-04-15T03:16:54.788Z,100198.94
2023-04-15T03:19:26.752Z,100201.47
2023-04-15T03:21:58.601Z,100201.78
2023-04-15T03:24:31.450Z,100197.72
2023-04-15T03:27:03.365Z,100200.09
2023-04-15T03:29:36.316Z,100196.72
2023-04-15T03:32:08.008Z,100192.56
2023-04-15T03:34:39.916Z,100197.03
2023-04-15T03:37:11.861Z,100198.72
2023-04-15T03:39:43.658Z,100193.38
2023-04-15T03:42:15.639Z,100192.72
2023-04-15T03:44:48.847Z,100195.38
2023-04-15T03:47:20.966Z,100199.84
2023-04-15T03:49:52.527Z,100195.38
2023-04-15T03:52:24.543Z,100203.66
2023-04-15T03:54:56.337Z,100193.78
2023-04-15T03:57:28.179Z,100202.59
2023-04-15T04:00:01.358Z,100204.78
2023-04-15T04:02:33.485Z,100206.47
2023-04-15T04:05:05.709Z,100204.41
2023-04-15T04:07:37.547Z,100205.53
2023-04-15T04:10:11.435Z,100202.59
2023-04-15T04:12:43.432Z,100198.38
2023-04-15T04:15:17.099Z,100201.50
2023-04-15T04:17:49.007Z,100193.84
2023-04-15T04:20:21.189Z,100190.56
2023-04-15T04:22:53.112Z,100190.16
2023-04-15T04:25:24.912Z,100196.03
2023-04-15T04:27:56.793Z,100199.16
2023-04-15T04:30:30.321Z,100196.34
2023-04-15T04:33:02.087Z,100194.50
2023-04-15T04:35:34.972Z,100203.41
2023-04-15T04:38:06.813Z,100196.94
2023-04-15T04:40:38.682Z,100191.06
2023-04-15T04:43:10.694Z,100190.97
2023-04-15T04:45:43.872Z,100198.56
2023-04-15T04:48:15.723Z,100199.78
2023-04-15T04:50:48.029Z,100202.84
2023-04-15T04:53:20.486Z,100199.97
2023-04-15T04:55:52.261Z,100203.59
2023-04-15T04:58:24.136Z,100203.44
2023-04-15T05:00:57.516Z,100204.13
2023-04-15T05:03:29.940Z,100210.97
2023-04-15T05:06:03.055Z,100206.25
2023-04-15T05:08:34.937Z,100204.97
2023-04-15T05:11:07.270Z,100211.56
2023-04-15T05:13:39.600Z,100206.63
2023-04-15T05:16:12.878Z,100214.00
2023-04-15T05:18:44.789Z,100203.72
2023-04-15T05:21:16.648Z,100214.38
2023-04-15T05:23:48.478Z,100211.56
2023-04-15T05:26:21.619Z,100205.28
2023-04-15T05:28:53.791Z,100204.28
2023-04-15T05:31:26.768Z,100204.28
2023-04-15T05:33:59.166Z,100205.97
2023-04-15T05:36:31.409Z,100196.16
2023-04-15T05:39:03.148Z,100193.25
2023-04-15T05:41:36.021Z,100199.50
2023-04-15T05:44:07.709Z,100188.41
2023-04-15T05:46:40.823Z,100183.47
2023-04-15T05:49:12.510Z,100190.47
2023-04-15T05:51:44.285Z,100176.78
2023-04-15T05:54:17.719Z,100183.41
2023-04-15T05:56:51.214Z,100182.13
2023-04-15T05:59:23.034Z,100182.13
2023-04-15T06:01:56.374Z,100174.72
2023-04-15T06:04:28.147Z,100180.75
2023-04-15T06:06:59.894Z,100175.41
2023-04-15T06:09:31.767Z,100174.72
2023-04-15T06:12:04.595Z,100175.13
2023-04-15T06:14:36.234Z,100174.03
2023-04-15T06:17:09.557Z,100183.00
2023-04-15T06:19:41.410Z,100193.94
2023-04-15T06:22:13.237Z,100191.44
2023-04-15T06:24:45.282Z,100196.16
2023-04-15T06:27:17.103Z,100194.47
2023-04-15T06:29:48.799Z,100212.25
2023-04-15T06:32:21.797Z,100204.56
2023-04-15T06:34:53.742Z,100212.25
2023-04-15T06:37:25.553Z,100207.94
2023-04-15T06:39:57.402Z,100219.38
2023-04-15T06:42:29.357Z,100208.91
2023-04-15T06:45:01.384Z,100212.13
2023-04-15T06:47:34.604Z,100208.63
2023-04-15T06:50:06.606Z,100211.56
2023-04-15T06:52:38.463Z,100212.97
2023-04-15T06:55:12.351Z,100209.00
2023-04-15T06:57:45.775Z,100207.34
2023-04-15T07:00:18.761Z,100207.63
2023-04-15T07:02:51.947Z,100218.66
2023-04-15T07:05:23.697Z,100224.13
2023-04-15T07:07:55.829Z,100231.13
2023-04-15T07:10:27.435Z,100233.66
2023-04-15T07:12:59.271Z,100231.53
2023-04-15T07:15:31.193Z,100232.50
2023-04-15T07:18:04.450Z,100235.03
2023-04-15T07:20:36.639Z,100224.38
2023-04-15T07:23:08.233Z,100226.88
2023-04-15T07:25:40.292Z,100234.44
2023-04-15T07:28:11.961Z,100241.25
2023-04-15T07:30:43.886Z,100236.78
2023-04-15T07:33:17.113Z,100237.31
2023-04-15T07:35:49.044Z,100241.13
2023-04-15T07:38:20.898Z,100241.13
2023-04-15T07:40:52.737Z,100245.91
2023-04-15T07:43:24.603Z,100233.44
2023-04-15T07:45:56.648Z,100253.72
2023-04-15T07:48:29.650Z,100256.84
2023-04-15T07:51:03.458Z,100253.91
2023-04-15T07:53:35.615Z,100247.59
2023-04-15T07:56:10.219Z,100246.75
2023-04-15T07:58:42.448Z,100250.94
2023-04-15T08:01:16.050Z,100253.72
2023-04-15T08:03:49.175Z,100250.94
2023-04-15T08:06:20.845Z,100255.13
2023-04-15T08:08:52.943Z,100248.66
2023-04-15T08:11:24.914Z,100259.81
2023-04-15T08:13:58.191Z,100261.50
2023-04-15T08:16:30.580Z,100267.81
2023-04-15T08:19:03.932Z,100263.50
2023-04-15T08:21:35.900Z,100271.31
2023-04-15T08:24:11.345Z,100272.16
2023-04-15T08:26:43.201Z,100275.78
2023-04-15T08:29:14.972Z,100272.16
2023-04-15T08:31:47.668Z,100273.00
2023-04-15T08:34:20.903Z,100283.50
2023-04-15T08:36:52.566Z,100276.19
2023-04-15T08:39:26.036Z,100269.91
2023-04-15T08:42:05.606Z,100265.38
2023-04-15T08:44:41.159Z,100278.56
2023-04-15T08:47:18.881Z,100267.91
2023-04-15T08:49:55.806Z,100270.59
2023-04-15T08:52:28.820Z,100266.63
2023-04-15T08:55:03.578Z,100261.69
2023-04-15T08:57:36.957Z,100259.72
2023-04-15T09:00:12.454Z,100269.22
2023-04-15T09:02:44.408Z,100271.91
2023-04-15T09:05:18.405Z,100281.56
2023-04-15T09:07:51.962Z,100281.41
2023-04-15T09:10:25.489Z,100287.44
2023-04-15T09:12:58.900Z,100286.41
2023-04-15T09:15:33.860Z,100293.44
2023-04-15T09:18:05.810Z,100297.78
2023-04-15T09:20:44.572Z,100304.78
2023-04-15T09:23:19.710Z,100304.78
2023-04-15T09:25:54.450Z,100310.13
2023-04-15T09:28:31.901Z,100311.75
2023-04-15T09:31:06.034Z,100320.47
2023-04-15T09:33:54.935Z,100328.28
2023-04-15T09:36:29.814Z,100321.97
2023-04-15T09:39:03.876Z,100322.66
2023-04-15T09:41:35.590Z,100321.84
2023-04-15T09:44:07.661Z,100335.66
2023-04-15T09:46:50.705Z,100332.03
2023-04-15T09:49:23.330Z,100329.06
2023-04-15T09:52:05.698Z,100324.44
2023-04-15T09:54:42.334Z,100321.47
2023-04-15T09:57:15.830Z,100324.81
2023-04-15T09:59:47.506Z,100322.84
2023-04-15T10:02:21.811Z,100321.84
2023-04-15T10:04:55.369Z,100331.50
2023-04-15T10:07:29.773Z,100330.38
2023-04-15T10:10:05.304Z,100332.06
2023-04-15T10:12:38.800Z,100333.75
2023-04-15T10:15:18.228Z,100337.06
2023-04-15T10:17:51.981Z,100329.78
2023-04-15T10:20:26.193Z,100324.47
2023-04-15T10:23:02.089Z,100329.78
2023-04-15T10:25:35.324Z,100331.13
2023-04-15T10:28:08.853Z,100329.00
2023-04-15T10:30:43.350Z,100335.03
2023-04-15T10:33:20.430Z,100329.53
2023-04-15T10:35:54.862Z,100333.59
2023-04-15T10:38:43.194Z,100331.63
2023-04-15T10:41:20.854Z,100330.47
2023-04-15T10:43:55.782Z,100332.97
2023-04-15T10:46:40.028Z,100326.50
2023-04-15T10:49:16.289Z,100322.38
2023-04-15T10:51:58.343Z,100328.91
2023-04-15T10:54:39.431Z,100326.47
2023-04-15T10:57:18.388Z,100335.00
2023-04-15T11:00:11.492Z,100340.19
2023-04-15T11:02:53.382Z,100342.84
2023-04-15T11:05:44.988Z,100349.03
2023-04-15T11:08:17.163Z,100345.38
2023-04-15T11:10:59.490Z,100353.22
2023-04-15T11:13:36.210Z,100351.22
2023-04-15T11:16:08.565Z,100352.59
2023-04-15T11:18:40.232Z,100354.94
2023-04-15T11:21:12.717Z,100356.63
2023-04-15T11:23:46.912Z,100360.66
2023-04-15T11:26:20.786Z,100362.38
2023-04-15T11:28:52.753Z,100367.41
2023-04-15T11:31:28.584Z,100370.91
2023-04-15T11:34:02.848Z,100373.41
2023-04-15T11:36:35.297Z,100381.09
2023-04-15T11:39:09.922Z,100381.63
2023-04-15T11:41:44.908Z,100377.97
2023-04-15T11:44:22.641Z,100391.97
2023-04-15T11:46:56.406Z,100398.16
2023-04-15T11:49:33.904Z,100408.84
2023-04-15T11:52:13.349Z,100406.16
2023-04-15T11:54:45.203Z,100406.88
2023-04-15T11:57:19.161Z,100412.03
2023-04-15T11:59:50.800Z,100410.38
2023-04-15T12:02:31.852Z,100411.03
2023-04-15T12:05:07.698Z,100414.38
2023-04-15T12:08:00.539Z,100416.91
2023-04-15T12:10:34.561Z,100413.25
2023-04-15T12:13:13.423Z,100421.94
2023-04-15T12:15:46.864Z,100427.13
2023-04-15T12:18:26.205Z,100428.78
2023-04-15T12:20:58.285Z,100429.47
2023-04-15T12:23:31.679Z,100441.00
2023-04-15T12:26:08.146Z,100435.50
2023-04-15T12:28:44.075Z,100436.16
2023-04-15T12:31:18.048Z,100436.88
2023-04-15T12:33:53.038Z,100435.56
2023-04-15T12:36:24.888Z,100439.75
2023-04-15T12:38:56.870Z,100447.59
2023-04-15T12:41:28.489Z,100444.44
2023-04-15T12:44:02.109Z,100460.16
2023-04-15T12:46:34.899Z,100456.72
2023-04-15T12:49:06.954Z,100457.25
2023-04-15T12:51:38.765Z,100461.59
2023-04-15T12:54:10.595Z,100464.25
2023-04-15T12:56:42.308Z,100461.41
2023-04-15T12:59:15.999Z,100471.97
2023-04-15T13:01:48.115Z,100471.78
2023-04-15T13:04:23.048Z,100477.81
2023-04-15T13:06:54.849Z,100477.38
2023-04-15T13:09:27.045Z,100478.69
2023-04-15T13:11:59.205Z,100481.75
2023-04-15T13:14:32.890Z,100485.78
2023-04-15T13:17:10.033Z,100479.44
2023-04-15T13:19:41.869Z,100470.94
2023-04-15T13:22:15.408Z,100480.16
2023-04-15T13:24:47.137Z,100482.25
2023-04-15T13:27:18.938Z,100480.66
2023-04-15T13:29:51.947Z,100485.72
2023-04-15T13:32:23.794Z,100483.06
2023-04-15T13:34:56.187Z,100491.78
2023-04-15T13:37:32.607Z,100491.88
2023-04-15T13:40:07.093Z,100495.56
2023-04-15T13:42:37.386Z,100492.91
2023-04-15T13:45:13.230Z,100499.25
2023-04-15T13:47:45.508Z,100501.59
2023-04-15T13:50:17.468Z,100498.25
2023-04-15T13:52:49.270Z,100506.09
2023-04-15T13:55:23.001Z,100503.41
2023-04-15T13:57:58.224Z,100500.13
2023-04-15T14:00:31.206Z,100506.38
2023-04-15T14:03:03.375Z,100507.41
2023-04-15T14:05:35.142Z,100504.56
2023-04-15T14:08:08.493Z,100508.41
2023-04-15T14:10:44.172Z,100508.72
2023-04-15T14:13:16.130Z,100503.22
2023-04-15T14:15:50.467Z,100512.56
2023-04-15T14:18:22.389Z,100510.09
2023-04-15T14:20:54.282Z,100512.06
2023-04-15T14:23:26.237Z,100515.44
2023-04-15T14:25:58.744Z,100522.78
2023-04-15T14:28:30.600Z,100520.09
2023-04-15T14:31:05.143Z,100520.09
2023-04-15T14:33:37.266Z,100524.13
2023-04-15T14:36:11.516Z,100526.81
2023-04-15T14:38:46.129Z,100524.63
2023-04-15T14:41:20.674Z,100527.81
2023-04-15T14:43:52.229Z,100532.97
2023-04-15T14:46:26.236Z,100535.00
2023-04-15T14:48:58.215Z,100539.88
2023-04-15T14:51:31.305Z,100541.84
2023-04-15T14:54:03.083Z,100545.88
2023-04-15T14:56:36.827Z,100547.56
2023-04-15T14:59:08.469Z,100539.53
2023-04-15T15:01:41.562Z,100544.72
2023-04-15T15:04:15.192Z,100550.59
2023-04-15T15:06:49.248Z,100543.88
2023-04-15T15:09:23.634Z,100550.91
2023-04-15T15:11:56.894Z,100556.25
2023-04-15T15:14:28.551Z,100565.97
2023-04-15T15:17:01.643Z,100563.97
2023-04-15T15:19:33.883Z,100567.28
2023-04-15T15:22:06.590Z,100558.25
2023-04-15T15:24:38.463Z,100562.63
2023-04-15T15:27:10.531Z,100565.97
2023-04-15T15:29:42.754Z,100564.81
2023-04-15T15:32:16.002Z,100567.28
2023-04-15T15:34:47.882Z,100567.28
2023-04-15T15:37:19.883Z,100574.34
2023-04-15T15:39:52.866Z,100571.63
2023-04-15T15:42:24.747Z,100565.59
2023-04-15T15:44:56.589Z,100580.28
2023-04-15T15:47:29.844Z,100576.88
2023-04-15T15:50:05.596Z,100577.16
2023-04-15T15:52:38.005Z,100580.03
2023-04-15T15:55:11.199Z,100588.25
2023-04-15T15:57:44.509Z,100577.88
2023-04-15T16:00:23.185Z,100587.63
2023-04-15T16:05:35.383Z,100584.97
2023-04-15T16:08:09.145Z,100591.69
2023-04-15T16:10:41.064Z,100590.38
2023-04-15T16:13:14.649Z,100588.88
2023-04-15T16:15:46.471Z,100604.47
2023-04-15T16:18:19.533Z,100598.78
2023-04-15T16:20:51.370Z,100602.63
2023-04-15T16:23:23.786Z,100603.94
2023-04-15T16:25:55.831Z,100604.13
2023-04-15T16:28:27.529Z,100620.22
2023-04-15T16:30:59.908Z,100627.59
2023-04-15T16:33:33.276Z,100631.59
2023-04-15T16:36:07.710Z,100620.38
2023-04-15T16:38:39.561Z,100638.66
2023-04-15T16:41:11.442Z,100634.66
2023-04-15T16:43:43.391Z,100642.00
2023-04-15T16:46:15.106Z,100651.06
2023-04-15T16:48:48.082Z,100650.41
2023-04-15T16:51:19.997Z,100650.59
2023-04-15T16:53:51.923Z,100654.41
2023-04-15T16:56:23.808Z,100658.78
2023-04-15T16:58:55.768Z,100659.78
2023-04-15T17:01:27.529Z,100658.13
2023-04-15T17:04:00.715Z,100663.47
2023-04-15T17:06:32.505Z,100672.53
2023-04-15T17:09:04.682Z,100675.19
2023-04-15T17:11:38.732Z,100683.06
2023-04-15T17:14:11.002Z,100683.91
2023-04-15T17:16:43.151Z,100688.59
2023-04-15T17:19:16.352Z,100688.59
2023-04-15T17:21:48.412Z,100692.97
2023-04-15T17:24:20.519Z,100696.66
2023-04-15T17:26:52.347Z,100706.53
2023-04-15T17:29:24.419Z,100701.16
2023-04-15T17:31:56.181Z,100702.00
2023-04-15T17:34:50.796Z,100711.88
2023-04-15T17:37:22.279Z,100715.56
2023-04-15T17:39:54.163Z,100713.06
2023-04-15T17:42:26.338Z,100722.25
2023-04-15T17:44:58.286Z,100714.41
2023-04-15T17:47:31.286Z,100722.59
2023-04-15T17:50:04.351Z,100728.13
2023-04-15T17:52:36.325Z,100733.66
2023-04-15T17:55:08.541Z,100742.53
2023-04-15T17:57:40.380Z,100736.66
2023-04-15T18:00:17.509Z,100741.16
2023-04-15T18:02:49.699Z,100747.56
2023-04-15T18:05:23.035Z,100748.69
2023-04-15T18:07:56.558Z,100755.91
2023-04-15T18:10:28.428Z,100750.88
2023-04-15T18:13:00.506Z,100755.38
2023-04-15T18:15:32.504Z,100759.94
2023-04-15T18:18:04.198Z,100764.59
2023-04-15T18:20:37.969Z,100766.44
2023-04-15T18:23:09.922Z,100770.94
2023-04-15T18:25:43.404Z,100770.94
2023-04-15T18:28:15.716Z,100770.13
2023-04-15T18:30:47.326Z,100781.00
2023-04-15T18:33:19.203Z,100776.63
2023-04-15T18:35:52.203Z,100786.53
2023-04-15T18:38:24.057Z,100791.06
2023-04-15T18:40:56.034Z,100796.56
2023-04-15T18:43:27.921Z,100801.06
2023-04-15T18:45:59.942Z,100799.56
2023-04-15T18:48:31.731Z,100803.94
2023-04-15T18:51:04.982Z,100810.44
2023-04-15T18:53:36.836Z,100820.34
2023-04-15T18:56:08.700Z,100821.31
2023-04-15T18:59:27.133Z,100818.78
2023-04-15T19:01:32.373Z,100819.81
2023-04-15T19:04:04.860Z,100832.38
2023-04-15T19:06:37.958Z,100830.84
2023-04-15T19:09:11.213Z,100831.84
2023-04-15T19:11:43.583Z,100841.88
2023-04-15T19:14:15.962Z,100835.53
2023-04-15T19:16:47.876Z,100837.53
2023-04-15T19:19:19.710Z,100842.03
2023-04-15T19:21:53.621Z,100840.53
2023-04-15T19:24:25.458Z,100846.88
2023-04-15T19:26:57.350Z,100849.56
2023-04-15T19:29:29.665Z,100851.72
2023-04-15T19:32:01.506Z,100855.25
2023-04-15T19:34:33.498Z,100857.06
2023-04-15T19:37:06.700Z,100863.28
2023-04-15T19:39:38.589Z,100859.22
2023-04-15T19:42:10.481Z,100869.28
2023-04-15T19:44:42.875Z,100865.91
2023-04-15T19:47:14.586Z,100875.75
2023-04-15T19:49:46.546Z,100871.44
2023-04-15T19:52:19.879Z,100884.28
2023-04-15T19:54:51.849Z,100881.75
2023-04-15T19:57:23.659Z,100881.91
2023-04-15T19:59:55.621Z,100879.53
2023-04-15T20:02:27.632Z,100882.41
2023-04-15T20:04:59.396Z,100890.56
2023-04-15T20:07:33.486Z,100888.91
2023-04-15T20:10:12.010Z,100885.53
2023-04-15T20:12:51.563Z,100892.88
2023-04-15T20:15:25.072Z,100885.00
2023-04-15T20:17:56.941Z,100887.84
2023-04-15T20:20:28.819Z,100892.38
2023-04-15T20:23:01.938Z,100896.16
2023-04-15T20:25:33.653Z,100897.84
2023-04-15T20:28:05.455Z,100908.22
2023-04-15T20:30:37.980Z,100909.50
2023-04-15T20:33:10.455Z,100905.16
2023-04-15T20:35:42.403Z,100910.66
2023-04-15T20:38:16.317Z,100915.84
2023-04-15T20:40:48.245Z,100908.00
2023-04-15T20:43:21.390Z,100917.84
2023-04-15T20:45:53.994Z,100918.16
2023-04-15T20:48:26.116Z,100923.84
2023-04-15T20:50:57.741Z,100917.63
2023-04-15T20:53:30.688Z,100926.13
2023-04-15T20:56:02.613Z,100929.78
2023-04-15T20:58:34.431Z,100931.78
2023-04-15T21:01:06.358Z,100925.59
2023-04-15T21:03:38.318Z,100927.03
2023-04-15T21:06:10.061Z,100934.38
2023-04-15T21:08:43.025Z,100929.31
2023-04-15T21:11:24.316Z,100937.50
2023-04-15T21:14:09.140Z,100945.66
2023-04-15T21:16:41.099Z,100946.38
2023-04-15T21:19:12.842Z,100945.66
2023-04-15T21:21:44.758Z,100949.09
2023-04-15T21:24:17.753Z,100954.44
2023-04-15T21:26:49.645Z,100962.63
2023-04-15T21:29:21.538Z,100959.53
2023-04-15T21:31:53.386Z,100966.41
2023-04-15T21:34:25.220Z,100963.22
2023-04-15T21:36:57.206Z,100974.63
2023-04-15T21:39:30.406Z,100973.09
2023-04-15T21:42:02.770Z,100972.91
2023-04-15T21:44:34.378Z,100979.56
2023-04-15T21:47:06.459Z,100977.91
2023-04-15T21:49:38.025Z,100985.63
2023-04-15T21:52:09.768Z,100987.75
2023-04-15T21:54:42.690Z,100988.34
2023-04-15T21:57:14.731Z,100989.16
2023-04-15T21:59:46.511Z,100996.81
2023-04-15T22:02:18.463Z,100999.31
2023-04-15T22:04:50.818Z,100996.81
2023-04-15T22:07:22.750Z,100997.78
2023-04-15T22:09:56.419Z,101003.44
2023-04-15T22:12:28.265Z,101001.19
2023-04-15T22:15:00.634Z,100992.06
2023-04-15T22:17:32.488Z,100997.41
2023-04-15T22:20:04.381Z,100999.06
2023-04-15T22:22:43.489Z,100997.41
2023-04-15T22:25:17.844Z,101017.13
2023-04-15T22:27:49.985Z,101011.06
2023-04-15T22:30:21.644Z,101010.06
2023-04-15T22:32:53.513Z,101022.75
2023-04-15T22:35:25.336Z,101019.38
2023-04-15T22:37:57.629Z,101022.06
2023-04-15T22:40:31.248Z,101022.75
2023-04-15T22:43:03.180Z,101015.72
2023-04-15T22:45:35.973Z,101021.38
2023-04-15T22:48:07.535Z,101035.88
2023-04-15T22:50:42.293Z,101035.16
2023-04-15T22:53:15.924Z,101032.78
2023-04-15T22:55:53.856Z,101038.31
2023-04-15T22:58:25.571Z,101039.56
2023-04-15T23:00:57.482Z,101047.59
2023-04-15T23:03:29.156Z,101042.53
2023-04-15T23:06:00.910Z,101053.38
2023-04-15T23:08:32.592Z,101052.94
2023-04-15T23:11:05.936Z,101054.22
2023-04-15T23:13:37.644Z,101059.56
2023-04-15T23:16:11.120Z,101060.84
2023-04-15T23:18:42.960Z,101063.94
2023-04-15T23:21:14.786Z,101060.56
2023-04-15T23:23:46.646Z,101063.66
2023-04-15T23:26:19.646Z,101070.72
2023-04-15T23:28:51.463Z,101068.19
2023-04-15T23:31:23.293Z,101074.34
2023-04-15T23:33:55.222Z,101069.00
2023-04-15T23:36:27.215Z,101074.66
2023-04-15T23:38:59.059Z,101078.03
2023-04-15T23:41:32.254Z,101075.22
2023-04-15T23:44:04.105Z,101074.66
2023-04-15T23:46:36.123Z,101072.69
2023-04-15T23:49:08.412Z,101070.44
2023-04-15T23:51:40.192Z,101076.94
2023-04-15T23:54:11.955Z,101085.06
2023-04-15T23:56:46.123Z,101080.19
2023-04-15T23:59:17.768Z,101077.75
